Kansas, Oklahoma
Current Conditions -  °F | °C
As of 7:15 PM on Tuesday 21 Oct 2014 (Local Time) from KSLG Reporting Station
Clear Clear  
Wind Chill: 66°   Ceiling: Unl
Heat Index: 66°   Visibility: 10mi
Dew Point: 52°   Wind: 3mph
Humidity: 60%   Direction: 80°E
Pressure: 30.08"   Gusts: NA
Location:  36.21°N, 94.8°W
Report Text: KSLG 220015Z AUTO 08003KT 10SM CLR 19/11 A3008 RMK AO1
Loading
Personal Weather Stations






























Interactive Weather Map
Tropical Storm Tracking
New forecast layout! Learn more

10-Day Weather Forecast

Advertisements
Track Severe Weather on mobile